LFPN 200630Z AUTO 23003KT CAVOK 12/10 Q1025 NOSIG

ElémentsDécodage
LFPN Station météo située sur l'aérodrome de TOUSSUS-LE-NOBLE
200630Z émis le 20 du mois à 06h30 UTC
AUTO Bulletin édité par un automate
23003KT vent du 230°, 03 noeuds
CAVOK Ceiling And Visibility OK
- Visibilité de 10 Km ou plus
- Pas de nuage au-dessous de 1500m ou au-dessous de l'altitude minimale du secteur la plus élevée (si>1500m) et absence de CB
- pas de temps présent significatif
12/10 température 12°C, point de rosée 10°C
 soit une humidité relative de 88%
Q1025 la pression au niveau de la mer (QNH) est de 1025 hPa
NOSIG Pas de changement significatif prévu au cours des deux heures suivant l'heure de l'observation